Time;durP1;ratioP1;P1;durP2;ratioP2;P2;SDS_P1;SDS_P2;PMS_P1;PMS_P2;Temp;Humidity;BMP_temperature;BMP_pressure;BME280_temperature;BME280_humidity;BME280_pressure;Samples;Min_cycle;Max_cycle;Signal;HPM_P1;HPM_P2
2021/08/24 00:02:18;;;;;;;4.15;2.30;;;11.80;99.90;;;;;;5038640;28;20475;-80
2021/08/24 00:04:44;;;;;;;2.95;2.22;;;11.90;99.90;;;;;;5031895;28;20044;-81
2021/08/24 00:07:10;;;;;;;3.17;1.80;;;11.90;99.90;;;;;;5044246;28;20059;-81
2021/08/24 00:09:36;;;;;;;2.90;2.10;;;11.80;99.90;;;;;;5031118;23;20037;-78
2021/08/24 00:12:03;;;;;;;3.08;2.00;;;11.80;99.90;;;;;;5033381;28;20025;-78
2021/08/24 00:14:31;;;;;;;2.70;2.20;;;11.80;99.90;;;;;;5038640;28;20032;-77
2021/08/24 00:16:57;;;;;;;4.38;2.63;;;11.80;99.90;;;;;;5028996;28;20029;-78
2021/08/24 00:19:23;;;;;;;3.67;2.10;;;11.80;99.90;;;;;;5037905;28;20458;-77
2021/08/24 00:21:49;;;;;;;4.53;2.80;;;11.80;99.90;;;;;;5038831;28;20063;-78
2021/08/24 00:24:15;;;;;;;2.58;2.17;;;11.80;99.90;;;;;;5051814;28;20029;-78
2021/08/24 00:26:41;;;;;;;4.85;2.83;;;11.80;99.90;;;;;;5024955;28;20032;-77
2021/08/24 00:29:07;;;;;;;4.40;2.33;;;11.80;99.90;;;;;;5032279;28;20395;-78
2021/08/24 00:31:33;;;;;;;4.72;2.60;;;11.80;99.90;;;;;;5046749;28;20033;-78
2021/08/24 00:33:59;;;;;;;3.90;2.50;;;11.80;99.90;;;;;;5000017;28;20040;-78
2021/08/24 00:36:24;;;;;;;4.60;2.83;;;11.80;99.90;;;;;;5030352;28;20029;-78
2021/08/24 00:38:50;;;;;;;4.72;2.65;;;11.80;99.90;;;;;;5027867;28;20208;-78
2021/08/24 00:41:17;;;;;;;4.65;2.83;;;11.80;99.90;;;;;;5018859;28;20033;-77
2021/08/24 00:43:45;;;;;;;4.60;2.67;;;11.80;99.90;;;;;;5028499;28;20029;-77
2021/08/24 00:46:19;;;;;;;4.10;2.65;;;11.80;99.90;;;;;;5040521;28;20032;-78
2021/08/24 00:48:45;;;;;;;3.92;2.67;;;11.80;99.90;;;;;;5050316;28;20029;-78
2021/08/24 00:51:15;;;;;;;5.60;2.58;;;11.90;99.90;;;;;;5040687;28;20025;-78
2021/08/24 00:53:42;;;;;;;3.95;2.88;;;11.90;99.90;;;;;;5052895;28;20036;-78
2021/08/24 00:56:09;;;;;;;4.15;2.55;;;11.90;99.90;;;;;;5010557;28;20044;-77
2021/08/24 00:58:35;;;;;;;5.45;2.95;;;11.90;99.90;;;;;;5024143;28;20041;-78
2021/08/24 01:01:00;;;;;;;3.80;2.50;;;11.90;99.90;;;;;;5013356;28;20036;-78
2021/08/24 01:03:34;;;;;;;3.30;2.40;;;11.90;99.90;;;;;;5029675;28;20550;-78
2021/08/24 01:06:16;;;;;;;3.92;2.70;;;11.90;99.90;;;;;;5024821;28;20101;-78
2021/08/24 01:08:53;;;;;;;5.75;2.75;;;11.90;99.90;;;;;;5054116;28;20053;-78
2021/08/24 01:11:29;;;;;;;6.13;2.80;;;11.90;99.90;;;;;;5048457;28;20033;-77
2021/08/24 01:14:18;;;;;;;2.78;2.20;;;12.00;99.90;;;;;;5059173;28;20098;-78
2021/08/24 01:16:58;;;;;;;4.35;2.80;;;12.00;99.90;;;;;;5043706;28;20483;-78
2021/08/24 01:19:45;;;;;;;3.83;2.20;;;12.00;99.90;;;;;;5017672;28;20032;-78
2021/08/24 01:22:23;;;;;;;5.93;2.42;;;12.00;99.90;;;;;;5061621;28;20048;-78
2021/08/24 01:24:55;;;;;;;3.55;2.63;;;12.00;99.90;;;;;;5049675;28;20108;-78
2021/08/24 01:27:40;;;;;;;3.67;2.80;;;12.10;99.90;;;;;;5045772;28;20108;-78
2021/08/24 01:30:18;;;;;;;2.75;2.38;;;12.10;99.90;;;;;;5032442;28;20394;-78
2021/08/24 01:33:02;;;;;;;4.40;2.60;;;12.10;99.90;;;;;;5050932;28;20035;-78
2021/08/24 01:36:06;;;;;;;2.70;2.40;;;12.10;99.90;;;;;;5045499;28;20036;-77
2021/08/24 01:38:39;;;;;;;3.20;2.47;;;12.10;99.90;;;;;;5002922;28;20038;-78
2021/08/24 01:41:30;;;;;;;4.35;2.67;;;12.20;99.90;;;;;;5027173;28;20033;-78
2021/08/24 01:44:17;;;;;;;5.60;2.97;;;12.20;99.90;;;;;;5053072;28;20078;-78
2021/08/24 01:47:06;;;;;;;4.25;2.60;;;12.20;99.90;;;;;;5034666;28;20033;-78
2021/08/24 01:50:00;;;;;;;2.78;2.45;;;12.20;99.90;;;;;;5031826;28;20043;-78
2021/08/24 01:52:34;;;;;;;4.93;2.55;;;12.10;99.90;;;;;;5057150;28;20029;-78
2021/08/24 01:55:06;;;;;;;4.72;2.65;;;12.20;99.90;;;;;;5057377;28;20043;-78
2021/08/24 01:57:53;;;;;;;5.22;2.50;;;12.20;99.90;;;;;;5014050;28;20024;-78
2021/08/24 02:00:19;;;;;;;2.78;2.47;;;12.20;99.90;;;;;;5055505;28;20039;-78
2021/08/24 02:02:52;;;;;;;4.15;3.08;;;12.20;99.90;;;;;;5038787;28;20073;-78
2021/08/24 02:05:24;;;;;;;5.38;2.60;;;12.20;99.90;;;;;;5033749;28;20110;-78
2021/08/24 02:07:56;;;;;;;4.93;2.83;;;12.20;99.90;;;;;;5034455;28;20037;-78
2021/08/24 02:10:24;;;;;;;2.97;2.30;;;12.20;99.90;;;;;;5035871;28;20036;-79
2021/08/24 02:12:53;;;;;;;3.67;2.40;;;12.20;99.90;;;;;;5058043;28;20036;-78
2021/08/24 02:15:27;;;;;;;3.17;2.30;;;12.20;99.90;;;;;;5052965;28;20106;-79
2021/08/24 02:17:55;;;;;;;3.63;2.80;;;12.20;99.90;;;;;;5058185;28;20395;-78
2021/08/24 02:20:27;;;;;;;4.25;3.08;;;12.20;99.90;;;;;;5021730;28;20041;-78
2021/08/24 02:23:01;;;;;;;5.65;3.03;;;12.30;99.90;;;;;;5058056;28;20029;-78
2021/08/24 02:25:33;;;;;;;7.07;2.90;;;12.30;99.90;;;;;;5032448;28;20038;-78
2021/08/24 02:28:11;;;;;;;3.03;2.72;;;12.30;99.90;;;;;;5052579;28;20029;-78
2021/08/24 02:30:52;;;;;;;4.47;2.40;;;12.30;99.90;;;;;;5034624;28;20040;-79
2021/08/24 02:33:21;;;;;;;3.92;2.90;;;12.30;99.90;;;;;;5034865;28;20570;-78
2021/08/24 02:35:53;;;;;;;3.15;2.28;;;12.30;99.90;;;;;;5026540;28;20040;-78
2021/08/24 02:38:25;;;;;;;3.00;2.55;;;12.30;99.90;;;;;;5039107;28;20024;-78
2021/08/24 02:41:11;;;;;;;4.22;2.60;;;12.30;99.90;;;;;;5014182;28;20029;-78
2021/08/24 02:44:13;;;;;;;5.40;2.90;;;12.30;99.90;;;;;;5031073;28;20032;-78
2021/08/24 02:46:44;;;;;;;4.85;3.20;;;12.30;99.90;;;;;;5045535;28;20029;-79
2021/08/24 02:49:14;;;;;;;3.55;2.78;;;12.30;99.90;;;;;;5034174;28;20418;-78
2021/08/24 02:51:40;;;;;;;4.18;2.55;;;12.30;99.90;;;;;;5046842;28;20033;-78
2021/08/24 02:54:27;;;;;;;4.40;2.78;;;12.30;99.90;;;;;;5033338;28;20059;-78
2021/08/24 02:56:54;;;;;;;4.60;3.03;;;12.30;99.90;;;;;;5036984;28;20100;-78
2021/08/24 02:59:21;;;;;;;3.67;3.03;;;12.30;99.90;;;;;;5019533;28;20063;-79
2021/08/24 03:01:47;;;;;;;4.30;2.90;;;12.30;99.90;;;;;;5034656;28;20033;-78
2021/08/24 03:04:13;;;;;;;5.40;3.17;;;12.30;99.90;;;;;;5054410;28;20160;-78
2021/08/24 03:06:43;;;;;;;3.80;2.85;;;12.30;99.90;;;;;;5006896;28;20048;-79
2021/08/24 03:09:10;;;;;;;5.13;2.95;;;12.30;99.90;;;;;;5047030;28;20623;-79
2021/08/24 03:11:51;;;;;;;4.05;3.30;;;12.30;99.90;;;;;;5028965;28;20032;-79
2021/08/24 03:14:48;;;;;;;4.72;3.10;;;12.30;99.90;;;;;;5031774;28;20038;-79
2021/08/24 03:17:23;;;;;;;5.00;2.97;;;12.30;99.90;;;;;;5042083;28;20049;-80
2021/08/24 03:19:50;;;;;;;4.30;3.13;;;12.30;99.90;;;;;;5023906;28;20025;-79
2021/08/24 03:22:16;;;;;;;6.13;3.50;;;12.30;99.90;;;;;;5027826;28;20025;-79
2021/08/24 03:24:43;;;;;;;5.68;3.50;;;12.30;99.90;;;;;;5028114;28;20028;-79
2021/08/24 03:27:10;;;;;;;3.88;3.03;;;12.30;99.90;;;;;;5006524;28;20048;-79
2021/08/24 03:29:37;;;;;;;5.03;3.40;;;12.30;99.90;;;;;;5030806;28;20033;-79
2021/08/24 03:32:06;;;;;;;5.10;3.58;;;12.30;99.90;;;;;;5023662;28;20048;-78
2021/08/24 03:34:32;;;;;;;4.80;3.42;;;12.40;99.90;;;;;;5058000;28;20086;-78
2021/08/24 03:36:57;;;;;;;5.05;3.17;;;12.40;99.90;;;;;;5027904;28;20068;-79
2021/08/24 03:39:23;;;;;;;3.97;3.00;;;12.30;99.90;;;;;;5054105;28;20086;-79
2021/08/24 03:41:49;;;;;;;3.60;3.05;;;12.40;99.90;;;;;;5046479;28;20032;-79
2021/08/24 03:44:15;;;;;;;5.70;3.35;;;12.40;99.90;;;;;;5012442;28;20033;-78
2021/08/24 03:46:40;;;;;;;7.15;2.80;;;12.40;99.90;;;;;;5025383;28;20057;-79
2021/08/24 03:49:06;;;;;;;3.78;2.95;;;12.40;99.90;;;;;;5009378;28;20036;-79
2021/08/24 03:51:32;;;;;;;4.20;3.17;;;12.50;99.90;;;;;;5012966;28;20037;-79
2021/08/24 03:53:58;;;;;;;4.10;2.97;;;12.40;99.90;;;;;;5044387;28;20638;-78
2021/08/24 03:56:24;;;;;;;3.22;2.75;;;12.40;99.90;;;;;;5043765;28;20025;-79
2021/08/24 03:58:49;;;;;;;4.07;3.00;;;12.40;99.90;;;;;;5022224;28;20108;-78
2021/08/24 04:01:18;;;;;;;5.00;3.15;;;12.40;99.90;;;;;;5021172;28;20044;-78
2021/08/24 04:03:44;;;;;;;4.63;3.55;;;12.50;99.90;;;;;;5054105;28;20762;-79
2021/08/24 04:06:10;;;;;;;7.20;3.38;;;12.40;99.90;;;;;;5008290;28;20044;-79
2021/08/24 04:08:37;;;;;;;4.78;2.78;;;12.40;99.90;;;;;;5039033;28;20048;-79
2021/08/24 04:11:07;;;;;;;4.63;2.78;;;12.40;99.90;;;;;;5024701;28;20060;-79
2021/08/24 04:13:34;;;;;;;3.22;2.92;;;12.40;99.90;;;;;;5046052;28;20498;-79
2021/08/24 04:16:04;;;;;;;4.55;3.00;;;12.40;99.90;;;;;;5035718;28;20033;-79
2021/08/24 04:18:30;;;;;;;4.55;3.13;;;12.40;99.90;;;;;;5018427;28;20048;-79
2021/08/24 04:20:55;;;;;;;3.20;2.83;;;12.50;99.90;;;;;;5023440;28;20029;-79
2021/08/24 04:23:23;;;;;;;4.05;2.90;;;12.50;99.90;;;;;;5051147;28;20021;-79
2021/08/24 04:25:49;;;;;;;4.65;2.70;;;12.50;99.90;;;;;;5053929;28;20037;-78
2021/08/24 04:28:15;;;;;;;4.20;3.17;;;12.50;99.90;;;;;;5002883;28;20078;-79
2021/08/24 04:30:41;;;;;;;4.30;3.08;;;12.50;99.90;;;;;;5043058;28;20120;-78
2021/08/24 04:33:07;;;;;;;3.50;2.75;;;12.50;99.90;;;;;;5028646;28;20029;-79
2021/08/24 04:35:33;;;;;;;3.58;3.08;;;12.50;99.90;;;;;;5035935;28;20029;-79
2021/08/24 04:37:59;;;;;;;4.63;2.72;;;12.50;99.90;;;;;;5053342;28;20670;-79
2021/08/24 04:40:27;;;;;;;3.58;2.88;;;12.50;99.90;;;;;;5027764;28;20021;-78
2021/08/24 04:42:54;;;;;;;3.08;2.70;;;12.50;99.90;;;;;;5044478;28;20491;-79
2021/08/24 04:45:19;;;;;;;3.88;3.08;;;12.50;99.90;;;;;;5051336;28;20850;-77
2021/08/24 04:47:45;;;;;;;4.10;2.72;;;12.50;99.90;;;;;;5042622;28;20037;-78
2021/08/24 04:50:11;;;;;;;4.40;3.08;;;12.50;99.90;;;;;;5029054;28;20048;-79
2021/08/24 04:52:36;;;;;;;3.42;2.90;;;12.50;99.90;;;;;;5054172;28;20033;-78
2021/08/24 04:55:03;;;;;;;3.47;2.85;;;12.50;99.90;;;;;;5038741;28;20048;-78
2021/08/24 04:57:29;;;;;;;4.38;3.22;;;12.60;99.90;;;;;;5035213;28;20491;-79
2021/08/24 04:59:54;;;;;;;3.97;3.10;;;12.50;99.90;;;;;;5053492;28;20051;-78
2021/08/24 05:02:20;;;;;;;5.50;3.25;;;12.60;99.90;;;;;;5042265;28;20028;-78
2021/08/24 05:04:46;;;;;;;5.47;3.00;;;12.60;99.90;;;;;;5051128;28;20411;-79
2021/08/24 05:07:12;;;;;;;4.93;3.13;;;12.60;99.90;;;;;;5056909;28;20051;-79
2021/08/24 05:09:37;;;;;;;3.50;2.65;;;12.60;99.90;;;;;;5005808;28;20124;-79
2021/08/24 05:12:04;;;;;;;3.40;2.83;;;12.60;99.90;;;;;;5035875;28;20036;-79
2021/08/24 05:14:30;;;;;;;3.97;2.72;;;12.60;99.90;;;;;;5018288;28;20045;-79
2021/08/24 05:16:58;;;;;;;5.07;3.25;;;12.60;99.90;;;;;;5027288;28;20092;-79
2021/08/24 05:19:24;;;;;;;3.53;2.70;;;12.60;99.90;;;;;;5054484;28;20111;-79
2021/08/24 05:21:50;;;;;;;4.80;3.53;;;12.70;99.90;;;;;;5033269;28;20080;-79
2021/08/24 05:24:16;;;;;;;4.45;3.45;;;12.70;99.90;;;;;;5014803;28;20033;-78
2021/08/24 05:26:42;;;;;;;5.20;3.53;;;12.70;99.90;;;;;;5030485;28;20033;-78
2021/08/24 05:29:07;;;;;;;4.95;4.13;;;12.70;99.90;;;;;;5028815;28;20052;-78
2021/08/24 05:31:33;;;;;;;5.80;4.22;;;12.70;99.90;;;;;;5054364;28;20036;-79
2021/08/24 05:33:59;;;;;;;4.55;4.05;;;12.70;99.90;;;;;;5011540;28;20087;-78
2021/08/24 05:36:25;;;;;;;5.68;4.03;;;12.80;99.90;;;;;;5016351;28;20030;-78
2021/08/24 05:38:51;;;;;;;5.80;3.97;;;12.80;99.90;;;;;;5047486;28;20056;-78
2021/08/24 05:41:17;;;;;;;5.72;3.90;;;12.80;99.90;;;;;;5050750;28;20021;-78
2021/08/24 05:43:43;;;;;;;6.45;4.72;;;12.80;99.90;;;;;;5040459;28;20032;-78
2021/08/24 05:46:12;;;;;;;7.47;4.05;;;12.80;99.90;;;;;;5017703;28;20171;-78
2021/08/24 05:48:39;;;;;;;4.05;3.65;;;12.80;99.90;;;;;;5016118;28;20028;-78
2021/08/24 05:51:14;;;;;;;5.35;4.07;;;12.90;99.90;;;;;;5031031;28;20374;-78
2021/08/24 05:53:40;;;;;;;6.88;4.63;;;12.90;99.90;;;;;;5052982;28;20114;-78
2021/08/24 05:56:11;;;;;;;8.00;4.75;;;12.80;99.90;;;;;;5035086;28;20053;-77
2021/08/24 05:58:38;;;;;;;5.35;4.32;;;12.80;99.90;;;;;;5016010;28;20034;-78
2021/08/24 06:01:04;;;;;;;5.82;4.47;;;12.80;99.90;;;;;;5041341;28;20026;-78
2021/08/24 06:03:29;;;;;;;4.80;4.10;;;12.90;99.90;;;;;;5028498;28;20105;-78
2021/08/24 06:05:55;;;;;;;5.50;4.15;;;12.90;99.90;;;;;;5007281;28;20133;-78
2021/08/24 06:08:21;;;;;;;6.60;4.47;;;12.90;99.90;;;;;;5015585;28;20455;-78
2021/08/24 06:10:46;;;;;;;5.28;4.07;;;12.90;99.90;;;;;;5044288;28;20055;-78
2021/08/24 06:13:12;;;;;;;6.47;4.45;;;12.90;99.90;;;;;;5018640;28;20098;-78
2021/08/24 06:15:38;;;;;;;8.48;5.20;;;13.00;99.90;;;;;;5042119;23;20138;-82
2021/08/24 06:18:04;;;;;;;6.53;4.45;;;13.00;99.90;;;;;;4980860;28;20018;-79
2021/08/24 06:20:29;;;;;;;10.38;5.55;;;13.00;99.90;;;;;;4996209;28;20583;-79
2021/08/24 06:22:55;;;;;;;7.10;5.15;;;13.10;99.90;;;;;;5010359;28;20026;-81
2021/08/24 06:25:22;;;;;;;7.18;5.13;;;13.10;99.90;;;;;;4987864;28;20038;-81
2021/08/24 06:27:49;;;;;;;5.85;4.68;;;13.10;99.90;;;;;;4979303;28;20120;-81
2021/08/24 06:30:15;;;;;;;8.00;5.10;;;13.10;99.90;;;;;;5008474;28;20123;-81
2021/08/24 06:32:52;;;;;;;10.50;5.32;;;13.10;99.90;;;;;;4996818;28;20070;-81
2021/08/24 06:35:19;;;;;;;7.53;5.30;;;13.10;99.90;;;;;;4989721;28;20030;-82
2021/08/24 06:37:45;;;;;;;7.47;5.25;;;13.10;99.90;;;;;;5011091;28;20022;-80
2021/08/24 06:40:13;;;;;;;9.90;5.85;;;13.10;99.90;;;;;;4962395;28;20516;-82
2021/08/24 06:42:46;;;;;;;8.48;5.53;;;13.10;99.90;;;;;;4979422;28;20026;-80
2021/08/24 06:45:27;;;;;;;7.72;5.47;;;13.00;99.90;;;;;;4977084;28;20377;-82
2021/08/24 06:47:53;;;;;;;7.68;5.60;;;13.10;99.90;;;;;;4976489;28;20491;-81
2021/08/24 06:50:20;;;;;;;8.90;5.93;;;13.00;99.90;;;;;;5002047;28;20093;-79
2021/08/24 06:52:46;;;;;;;7.20;5.32;;;13.00;99.90;;;;;;4990773;28;20034;-80
2021/08/24 06:55:12;;;;;;;8.90;5.97;;;13.00;99.90;;;;;;4971510;28;20077;-81
2021/08/24 06:57:39;;;;;;;7.20;5.75;;;13.00;99.90;;;;;;4990991;28;20023;-82
2021/08/24 07:00:11;;;;;;;8.88;6.38;;;13.10;99.90;;;;;;4966447;28;20077;-82
2021/08/24 07:02:39;;;;;;;9.27;6.05;;;13.20;99.90;;;;;;4972505;28;20399;-82
2021/08/24 07:05:06;;;;;;;7.13;5.45;;;13.20;99.90;;;;;;4995249;28;20046;-81
2021/08/24 07:07:32;;;;;;;8.80;6.07;;;13.20;99.90;;;;;;4975035;28;20023;-82
2021/08/24 07:09:57;;;;;;;6.00;4.95;;;13.20;99.90;;;;;;5010457;28;20030;-82
2021/08/24 07:12:23;;;;;;;9.82;6.47;;;13.30;99.90;;;;;;4990644;28;20035;-81
2021/08/24 07:14:49;;;;;;;7.63;5.80;;;13.30;99.90;;;;;;4993836;28;20030;-82
2021/08/24 07:17:18;;;;;;;10.60;5.85;;;13.40;99.90;;;;;;5008790;28;20483;-82
2021/08/24 07:19:44;;;;;;;7.72;5.88;;;13.50;99.90;;;;;;4996257;28;20097;-82
2021/08/24 07:22:10;;;;;;;8.52;5.90;;;13.70;99.90;;;;;;4997022;28;20120;-82
2021/08/24 07:24:36;;;;;;;10.90;6.68;;;13.80;99.90;;;;;;4990332;28;20122;-80
2021/08/24 07:27:02;;;;;;;9.38;6.80;;;13.90;99.90;;;;;;4998724;28;20033;-81
2021/08/24 07:29:28;;;;;;;9.13;6.72;;;14.10;99.90;;;;;;4998609;28;20030;-81
2021/08/24 07:31:53;;;;;;;8.27;6.45;;;14.10;99.90;;;;;;4985994;28;20069;-81
2021/08/24 07:34:19;;;;;;;9.50;6.60;;;14.20;99.90;;;;;;4997964;28;20046;-82
2021/08/24 07:36:45;;;;;;;11.48;7.25;;;14.30;99.90;;;;;;4975126;28;20026;-80
2021/08/24 07:39:11;;;;;;;9.52;6.78;;;14.50;99.90;;;;;;4981923;28;20083;-82
2021/08/24 07:41:37;;;;;;;8.02;6.10;;;14.50;99.90;;;;;;5005198;28;20657;-80
2021/08/24 07:44:03;;;;;;;10.63;6.55;;;14.60;99.90;;;;;;4986779;28;20026;-80
2021/08/24 07:46:29;;;;;;;12.68;6.68;;;14.60;99.90;;;;;;4991702;28;20088;-82
2021/08/24 07:48:55;;;;;;;9.32;6.85;;;14.60;99.90;;;;;;4977469;28;20038;-81
2021/08/24 07:51:21;;;;;;;8.02;6.25;;;14.60;99.90;;;;;;5010761;28;20538;-83
2021/08/24 07:53:49;;;;;;;8.18;6.10;;;14.60;99.90;;;;;;4988792;28;20041;-81
2021/08/24 07:56:15;;;;;;;8.50;6.43;;;14.70;99.90;;;;;;4991102;28;20030;-82
2021/08/24 07:58:40;;;;;;;8.35;5.93;;;14.90;99.90;;;;;;4995616;28;20038;-80
2021/08/24 08:01:06;;;;;;;7.75;5.72;;;15.10;99.90;;;;;;4986270;28;20058;-80
2021/08/24 08:03:32;;;;;;;7.60;5.28;;;15.20;99.90;;;;;;5014443;28;20045;-80
2021/08/24 08:05:58;;;;;;;6.75;5.65;;;15.20;99.90;;;;;;5011337;28;20030;-82
2021/08/24 08:08:24;;;;;;;8.35;5.68;;;15.40;99.90;;;;;;4963097;28;20380;-80
2021/08/24 08:10:49;;;;;;;6.00;5.25;;;15.50;99.90;;;;;;4994026;28;20029;-81
2021/08/24 08:13:15;;;;;;;8.10;5.78;;;15.60;99.90;;;;;;5019028;28;20044;-81
2021/08/24 08:15:41;;;;;;;7.40;5.28;;;15.80;99.90;;;;;;4956839;28;20041;-81
2021/08/24 08:18:08;;;;;;;5.18;4.40;;;16.00;99.90;;;;;;5003821;28;20038;-82
2021/08/24 08:20:37;;;;;;;7.60;4.43;;;16.20;99.90;;;;;;4983737;28;20026;-81
2021/08/24 08:23:05;;;;;;;7.57;5.20;;;16.40;99.90;;;;;;4965847;28;20113;-81
2021/08/24 08:25:31;;;;;;;5.35;4.30;;;16.60;99.90;;;;;;5004167;28;20125;-81
2021/08/24 08:27:58;;;;;;;7.07;4.57;;;16.70;99.90;;;;;;4982571;28;20041;-80
2021/08/24 08:30:23;;;;;;;7.63;4.40;;;16.70;99.90;;;;;;4978913;28;20042;-80
2021/08/24 08:32:49;;;;;;;8.55;4.10;;;16.70;99.90;;;;;;4993918;28;20080;-80
2021/08/24 08:35:17;;;;;;;7.63;4.13;;;16.70;99.90;;;;;;4955486;28;20408;-81
2021/08/24 08:37:44;;;;;;;4.68;3.92;;;16.60;99.90;;;;;;4995349;28;20052;-82
2021/08/24 08:40:11;;;;;;;6.93;4.45;;;16.70;99.90;;;;;;4966294;28;20051;-80
2021/08/24 08:43:11;;;;;;;7.80;4.50;;;16.70;99.90;;;;;;5002754;28;20037;-80
2021/08/24 08:45:43;;;;;;;6.35;4.43;;;16.70;99.90;;;;;;5009115;28;20033;-79
2021/08/24 08:48:20;;;;;;;8.77;4.88;;;16.80;99.90;;;;;;4997566;28;20596;-81
2021/08/24 08:50:54;;;;;;;8.38;5.13;;;16.80;99.90;;;;;;5017694;28;20077;-81
2021/08/24 08:53:35;;;;;;;4.80;4.28;;;16.90;99.90;;;;;;5002761;28;20041;-80
2021/08/24 08:56:26;;;;;;;7.43;4.45;;;16.90;99.90;;;;;;4977299;28;20662;-81
2021/08/24 08:59:31;;;;;;;5.57;4.45;;;16.90;99.90;;;;;;4998828;28;20023;-80
2021/08/24 09:02:31;;;;;;;6.63;4.80;;;16.90;99.90;;;;;;4998675;28;20038;-80
2021/08/24 09:04:59;;;;;;;5.40;4.50;;;17.00;99.90;;;;;;4996377;28;20034;-80
2021/08/24 09:07:56;;;;;;;6.30;4.45;;;16.90;99.90;;;;;;4969317;28;20108;-81
2021/08/24 09:10:29;;;;;;;7.05;4.60;;;16.80;99.90;;;;;;5004550;28;20052;-80
2021/08/24 09:13:31;;;;;;;6.38;4.65;;;16.80;99.90;;;;;;5005298;28;20085;-80
2021/08/24 09:16:09;;;;;;;6.82;5.22;;;16.70;99.90;;;;;;4999320;28;20069;-80
2021/08/24 09:18:44;;;;;;;8.27;4.65;;;16.70;99.90;;;;;;4984695;28;20030;-80
2021/08/24 09:21:18;;;;;;;7.40;4.70;;;16.70;99.90;;;;;;4970821;28;20022;-81
2021/08/24 09:23:44;;;;;;;7.55;5.20;;;16.60;99.90;;;;;;5009957;28;20034;-80
2021/08/24 09:26:46;;;;;;;9.02;6.45;;;16.60;99.90;;;;;;4989872;28;20488;-80
2021/08/24 09:29:12;;;;;;;11.32;5.10;;;16.50;99.90;;;;;;4996944;28;20124;-80
2021/08/24 09:31:40;;;;;;;8.80;5.50;;;16.60;99.90;;;;;;4990442;28;20027;-80
2021/08/24 09:34:07;;;;;;;7.30;5.20;;;16.50;99.90;;;;;;5000971;28;20033;-80
2021/08/24 09:36:33;;;;;;;6.07;5.18;;;16.50;99.90;;;;;;5001102;28;20175;-80
2021/08/24 09:38:59;;;;;;;6.57;4.93;;;16.40;99.90;;;;;;4977705;28;20580;-80
2021/08/24 09:41:31;;;;;;;7.93;4.93;;;16.50;99.90;;;;;;5005099;28;20180;-81
2021/08/24 09:44:17;;;;;;;9.18;5.30;;;16.50;99.90;;;;;;4985832;28;20041;-81
2021/08/24 09:46:43;;;;;;;7.25;5.28;;;16.50;99.90;;;;;;5005660;28;20038;-81
2021/08/24 09:49:21;;;;;;;7.00;4.75;;;16.50;99.90;;;;;;4999844;28;20375;-81
2021/08/24 09:52:00;;;;;;;7.28;5.43;;;16.60;99.90;;;;;;4979805;28;20034;-81
2021/08/24 09:55:00;;;;;;;7.22;5.10;;;16.60;99.90;;;;;;4998458;28;20497;-80
2021/08/24 09:57:30;;;;;;;5.95;4.22;;;16.60;99.90;;;;;;5001417;28;20030;-81
2021/08/24 09:59:59;;;;;;;6.72;4.57;;;16.70;99.90;;;;;;4992570;28;20022;-80
2021/08/24 10:02:45;;;;;;;11.55;5.93;;;16.80;99.90;;;;;;4992414;28;20387;-81
2021/08/24 10:05:20;;;;;;;7.57;4.68;;;17.10;99.90;;;;;;4994373;28;20112;-80
2021/08/24 10:07:48;;;;;;;7.43;4.97;;;17.30;99.90;;;;;;4990020;28;20027;-81
2021/08/24 10:10:31;;;;;;;6.03;4.65;;;17.40;99.90;;;;;;5008743;28;20411;-81
2021/08/24 10:12:59;;;;;;;5.93;4.55;;;17.50;99.90;;;;;;4992508;28;20403;-80
2021/08/24 10:15:34;;;;;;;7.32;5.05;;;17.50;99.90;;;;;;4978609;28;20503;-81
2021/08/24 10:18:08;;;;;;;7.00;4.85;;;17.50;99.90;;;;;;4975115;28;20026;-81
2021/08/24 10:20:52;;;;;;;6.72;4.85;;;17.30;99.90;;;;;;5008554;28;20037;-81
2021/08/24 10:23:29;;;;;;;6.32;4.88;;;17.30;99.90;;;;;;4990246;28;20092;-81
2021/08/24 10:26:01;;;;;;;6.68;5.00;;;17.20;99.90;;;;;;4979096;28;20061;-80
2021/08/24 10:28:52;;;;;;;6.25;4.93;;;17.20;99.90;;;;;;4988714;28;20026;-82
2021/08/24 10:31:43;;;;;;;5.85;4.60;;;17.10;99.90;;;;;;4983099;28;20038;-81
2021/08/24 10:34:27;;;;;;;6.60;4.90;;;17.10;99.90;;;;;;5008602;28;20038;-82
2021/08/24 10:37:32;;;;;;;6.07;4.68;;;17.10;99.90;;;;;;5009878;28;20075;-80
2021/08/24 10:40:06;;;;;;;5.82;4.40;;;17.20;99.90;;;;;;5010618;28;20049;-80
2021/08/24 10:42:33;;;;;;;6.03;4.43;;;17.30;99.90;;;;;;4997733;28;20030;-80
2021/08/24 10:45:01;;;;;;;8.13;4.88;;;17.30;99.90;;;;;;5002791;28;20025;-81
2021/08/24 10:47:33;;;;;;;5.85;5.00;;;17.40;99.90;;;;;;5023876;28;20068;-81
2021/08/24 10:50:00;;;;;;;6.22;4.65;;;17.30;99.90;;;;;;5004621;28;20022;-81
2021/08/24 10:52:52;;;;;;;7.50;4.72;;;17.30;99.90;;;;;;5002829;28;20065;-81
2021/08/24 10:55:26;;;;;;;7.38;4.72;;;17.20;99.90;;;;;;4998816;28;20408;-80
2021/08/24 10:58:18;;;;;;;7.95;4.80;;;17.20;99.90;;;;;;4980777;28;20026;-81
2021/08/24 11:01:01;;;;;;;7.40;5.20;;;17.10;99.90;;;;;;4993338;28;20072;-80
2021/08/24 11:03:40;;;;;;;6.03;4.50;;;17.10;99.90;;;;;;5004338;28;20036;-82
2021/08/24 11:06:21;;;;;;;6.45;5.18;;;17.10;99.90;;;;;;5006804;28;20030;-81
2021/08/24 11:09:16;;;;;;;6.43;5.25;;;17.10;99.90;;;;;;4990289;28;20455;-82
2021/08/24 11:11:42;;;;;;;5.97;4.50;;;16.90;99.90;;;;;;5002610;28;20034;-79
2021/08/24 11:14:25;;;;;;;6.40;4.70;;;16.90;99.90;;;;;;4991975;28;20293;-81
2021/08/24 11:16:53;;;;;;;7.72;4.93;;;16.80;99.90;;;;;;4998618;28;20140;-81
2021/08/24 11:19:34;;;;;;;7.63;4.70;;;16.80;99.90;;;;;;4990514;28;20058;-81
2021/08/24 11:22:16;;;;;;;5.25;4.30;;;16.80;99.90;;;;;;5008706;28;20022;-82
2021/08/24 11:25:08;;;;;;;5.80;4.45;;;16.90;99.90;;;;;;5005404;28;20092;-82
2021/08/24 11:27:41;;;;;;;5.10;3.75;;;16.90;99.90;;;;;;4981785;28;20065;-82
2021/08/24 11:30:24;;;;;;;8.98;4.80;;;16.90;99.90;;;;;;5001407;28;20093;-82
2021/08/24 11:32:57;;;;;;;6.50;4.13;;;17.00;99.90;;;;;;4988562;28;20842;-81
2021/08/24 11:35:38;;;;;;;6.47;4.13;;;16.90;99.90;;;;;;4997621;28;20088;-82
2021/08/24 11:38:10;;;;;;;6.43;4.65;;;17.00;99.90;;;;;;4995366;28;20032;-81
2021/08/24 11:40:54;;;;;;;4.45;3.97;;;16.90;99.90;;;;;;4988657;28;20044;-79
2021/08/24 11:43:46;;;;;;;5.90;4.40;;;16.90;99.90;;;;;;4995675;28;20112;-80
2021/08/24 11:46:54;;;;;;;7.28;5.47;;;16.80;99.90;;;;;;4995001;28;20040;-80
2021/08/24 11:49:34;;;;;;;6.93;4.72;;;16.80;99.90;;;;;;4954978;28;20270;-82
2021/08/24 11:52:23;;;;;;;7.65;4.30;;;16.70;99.90;;;;;;4999648;28;20025;-81
2021/08/24 11:55:14;;;;;;;5.88;4.05;;;16.70;99.90;;;;;;5006855;28;20045;-83
2021/08/24 11:58:01;;;;;;;6.30;3.95;;;16.60;99.90;;;;;;4992547;28;20026;-80
2021/08/24 12:00:28;;;;;;;11.63;5.60;;;16.50;99.90;;;;;;5009480;28;20026;-82
2021/08/24 12:02:54;;;;;;;7.65;5.45;;;16.40;99.90;;;;;;4986617;28;20085;-80
2021/08/24 12:05:31;;;;;;;7.85;4.63;;;16.40;99.90;;;;;;4986108;28;20162;-80
2021/08/24 12:08:04;;;;;;;5.00;4.10;;;16.40;99.90;;;;;;4997591;28;20401;-82
2021/08/24 12:10:49;;;;;;;7.25;4.85;;;16.40;99.90;;;;;;5000418;28;20236;-81
2021/08/24 12:13:29;;;;;;;9.57;4.65;;;16.30;99.90;;;;;;5007414;28;20034;-79
2021/08/24 12:16:21;;;;;;;8.73;4.18;;;16.30;99.90;;;;;;4980850;28;20066;-81
2021/08/24 12:18:52;;;;;;;6.57;4.72;;;16.30;99.90;;;;;;4997372;28;20053;-82
2021/08/24 12:21:39;;;;;;;6.53;4.75;;;16.40;99.90;;;;;;4987212;28;20038;-81
2021/08/24 12:24:23;;;;;;;6.30;4.55;;;16.50;99.90;;;;;;4995899;28;20492;-82
2021/08/24 12:26:55;;;;;;;6.28;4.40;;;16.70;99.90;;;;;;5011225;28;20025;-80
2021/08/24 12:29:34;;;;;;;9.05;4.63;;;16.90;99.90;;;;;;4990078;28;20038;-82
2021/08/24 12:32:03;;;;;;;6.05;4.68;;;17.20;99.90;;;;;;4998198;28;20523;-79
2021/08/24 12:34:35;;;;;;;5.05;4.50;;;17.50;99.90;;;;;;4998664;28;20033;-80
2021/08/24 12:37:19;;;;;;;6.93;5.13;;;17.80;99.90;;;;;;4988153;28;20461;-80
2021/08/24 12:39:55;;;;;;;6.70;4.93;;;18.10;99.90;;;;;;4999946;28;20031;-81
2021/08/24 12:42:33;;;;;;;7.97;5.50;;;18.20;99.90;;;;;;4991949;28;20061;-80
2021/08/24 12:45:01;;;;;;;6.45;5.13;;;18.40;99.90;;;;;;5000559;28;20037;-82
2021/08/24 12:47:41;;;;;;;7.60;5.35;;;18.30;99.90;;;;;;5005045;28;20030;-80
2021/08/24 12:50:06;;;;;;;7.68;5.00;;;18.30;99.90;;;;;;5002215;28;20073;-79
2021/08/24 12:52:47;;;;;;;7.45;5.55;;;18.20;99.90;;;;;;4992670;28;20027;-81
2021/08/24 12:55:31;;;;;;;8.15;4.82;;;18.20;99.90;;;;;;4996786;28;20048;-80
2021/08/24 12:58:16;;;;;;;7.07;4.78;;;18.30;99.90;;;;;;5001548;28;20054;-79
2021/08/24 13:01:11;;;;;;;7.67;5.33;;;18.50;99.90;;;;;;5006940;28;20109;-80
2021/08/24 13:03:39;;;;;;;5.43;4.60;;;18.60;99.90;;;;;;4989581;28;20029;-82
2021/08/24 13:06:24;;;;;;;5.53;4.93;;;18.60;99.90;;;;;;4996249;28;20041;-81
2021/08/24 13:09:27;;;;;;;5.93;4.57;;;18.70;99.90;;;;;;5007814;28;20033;-80
2021/08/24 13:12:11;;;;;;;6.25;5.25;;;18.60;99.90;;;;;;4988293;28;20026;-81
2021/08/24 13:14:40;;;;;;;5.63;4.80;;;18.60;99.90;;;;;;4977322;28;20025;-84